Terminal Aerodrome Forecast
Issued by NWS Tuscon, AZ

Home | Current Version | Previous Version | Text Only | Print | Product List | Glossary On
Versions: 1 2 3 4 5 6 7 8 9 10 11 12
873
FTUS45 KTWC 192320
TAFTUS
TAF
KTUS 192320Z 2000/2024 26010G16KT P6SM FEW130 SCT250
     FM200200 24006KT P6SM FEW150 SCT250
     FM200600 14007KT P6SM SCT250
     FM201800 25012G18KT P6SM FEW120 SCT250=

USA.gov is the U.S. government's official web portal to all federal, state and local government web resources and services.